createdAt,value
2022-10-09T00:00:46.924Z,13.72
2022-10-09T00:03:15.687Z,13.69
2022-10-09T00:05:42.895Z,13.69
2022-10-09T00:08:10.865Z,13.67
2022-10-09T00:10:41.644Z,13.70
2022-10-09T00:13:08.787Z,13.68
2022-10-09T00:15:40.973Z,13.65
2022-10-09T00:18:09.130Z,13.65
2022-10-09T00:20:37.852Z,13.65
2022-10-09T00:23:05.776Z,13.65
2022-10-09T00:25:33.948Z,13.68
2022-10-09T00:28:02.303Z,13.69
2022-10-09T00:30:29.580Z,13.67
2022-10-09T00:32:58.580Z,13.69
2022-10-09T00:35:25.927Z,13.65
2022-10-09T00:37:53.707Z,13.63
2022-10-09T00:40:21.615Z,13.63
2022-10-09T00:42:56.484Z,13.63
2022-10-09T00:45:24.121Z,13.61
2022-10-09T00:47:53.681Z,13.56
2022-10-09T00:50:31.093Z,13.54
2022-10-09T00:53:00.981Z,13.50
2022-10-09T00:55:29.552Z,13.50
2022-10-09T00:57:59.398Z,13.50
2022-10-09T01:00:26.731Z,13.52
2022-10-09T01:02:54.026Z,13.50
2022-10-09T01:05:30.577Z,13.50
2022-10-09T01:08:07.849Z,13.50
2022-10-09T01:10:42.423Z,13.48
2022-10-09T01:13:18.134Z,13.50
2022-10-09T01:15:52.465Z,13.48
2022-10-09T01:18:29.616Z,13.44
2022-10-09T01:21:07.040Z,13.42
2022-10-09T01:23:54.150Z,13.41
2022-10-09T01:26:35.401Z,13.43
2022-10-09T01:29:07.672Z,13.42
2022-10-09T01:31:40.169Z,13.42
2022-10-09T01:34:09.076Z,13.42
2022-10-09T01:36:37.306Z,13.46
2022-10-09T01:39:07.367Z,13.45
2022-10-09T01:41:35.853Z,13.44
2022-10-09T01:44:16.403Z,13.44
2022-10-09T01:46:44.965Z,13.43
2022-10-09T01:49:23.377Z,13.43
2022-10-09T01:52:02.410Z,13.44
2022-10-09T01:54:37.943Z,13.43
2022-10-09T01:57:08.961Z,13.42
2022-10-09T01:59:42.803Z,13.40
2022-10-09T02:02:11.597Z,13.39
2022-10-09T02:04:42.407Z,13.41
2022-10-09T02:07:10.927Z,13.40
2022-10-09T02:09:39.961Z,13.35
2022-10-09T02:12:11.989Z,13.38
2022-10-09T02:14:41.462Z,13.41
2022-10-09T02:17:16.005Z,13.38
2022-10-09T02:19:47.132Z,13.36
2022-10-09T02:22:18.628Z,13.33
2022-10-09T02:24:47.208Z,13.35
2022-10-09T02:27:15.322Z,13.32
2022-10-09T02:29:48.983Z,13.35
2022-10-09T02:32:17.005Z,13.32
2022-10-09T02:34:44.627Z,13.34
2022-10-09T02:37:12.826Z,13.35
2022-10-09T02:39:40.369Z,13.36
2022-10-09T02:42:07.872Z,13.29
2022-10-09T02:44:35.365Z,13.25
2022-10-09T02:47:04.096Z,13.25
2022-10-09T02:49:31.479Z,13.29
2022-10-09T02:52:00.757Z,13.25
2022-10-09T02:54:28.333Z,13.26
2022-10-09T02:56:56.789Z,13.25
2022-10-09T02:59:24.149Z,13.26
2022-10-09T03:01:51.896Z,13.26
2022-10-09T03:04:21.299Z,13.28
2022-10-09T03:06:49.180Z,13.25
2022-10-09T03:09:16.955Z,13.21
2022-10-09T03:11:44.482Z,13.17
2022-10-09T03:14:12.506Z,13.20
2022-10-09T03:16:40.498Z,13.19
2022-10-09T03:19:08.319Z,13.20
2022-10-09T03:21:38.423Z,13.20
2022-10-09T03:24:06.258Z,13.20
2022-10-09T03:26:34.096Z,13.21
2022-10-09T03:29:01.939Z,13.21
2022-10-09T03:34:16.804Z,13.14
2022-10-09T03:36:46.396Z,13.12
2022-10-09T03:39:13.787Z,13.14
2022-10-09T03:41:41.310Z,13.15
2022-10-09T03:44:08.806Z,13.13
2022-10-09T03:46:36.380Z,13.10
2022-10-09T03:49:04.158Z,13.10
2022-10-09T03:51:31.387Z,13.10
2022-10-09T03:54:00.624Z,13.07
2022-10-09T03:56:28.025Z,13.04
2022-10-09T03:58:55.825Z,13.06
2022-10-09T04:01:23.688Z,13.02
2022-10-09T04:03:51.032Z,13.02
2022-10-09T04:06:18.214Z,13.05
2022-10-09T04:08:46.245Z,13.05
2022-10-09T04:11:15.172Z,13.05
2022-10-09T04:13:42.181Z,13.00
2022-10-09T04:16:10.270Z,13.02
2022-10-09T04:18:37.583Z,13.00
2022-10-09T04:21:04.727Z,12.98
2022-10-09T04:23:32.986Z,12.98
2022-10-09T04:26:01.433Z,12.98
2022-10-09T04:28:31.900Z,13.02
2022-10-09T04:31:00.742Z,12.99
2022-10-09T04:33:29.121Z,13.00
2022-10-09T04:35:57.279Z,12.99
2022-10-09T04:38:25.757Z,12.96
2022-10-09T04:40:57.766Z,12.94
2022-10-09T04:43:25.284Z,12.92
2022-10-09T04:45:53.930Z,12.87
2022-10-09T04:48:21.933Z,12.86
2022-10-09T04:50:49.760Z,12.83
2022-10-09T04:53:17.224Z,12.81
2022-10-09T04:55:44.801Z,12.79
2022-10-09T04:58:14.572Z,12.78
2022-10-09T05:00:43.253Z,12.72
2022-10-09T05:03:13.668Z,12.70
2022-10-09T05:05:41.293Z,12.60
2022-10-09T05:08:08.823Z,12.57
2022-10-09T05:10:36.656Z,12.52
2022-10-09T05:13:04.504Z,12.53
2022-10-09T05:15:32.497Z,12.53
2022-10-09T05:17:59.750Z,12.48
2022-10-09T05:20:28.334Z,12.44
2022-10-09T05:22:55.837Z,12.46
2022-10-09T05:25:23.106Z,12.41
2022-10-09T05:27:50.237Z,12.42
2022-10-09T05:30:17.469Z,12.39
2022-10-09T05:32:44.921Z,12.38
2022-10-09T05:35:12.271Z,12.36
2022-10-09T05:37:44.674Z,12.36
2022-10-09T05:40:12.509Z,12.32
2022-10-09T05:42:39.791Z,12.32
2022-10-09T05:45:08.348Z,12.34
2022-10-09T05:47:36.155Z,12.31
2022-10-09T05:50:03.648Z,12.33
2022-10-09T05:52:30.893Z,12.31
2022-10-09T05:55:00.567Z,12.33
2022-10-09T05:57:27.851Z,12.35
2022-10-09T05:59:55.179Z,12.35
2022-10-09T06:02:22.299Z,12.38
2022-10-09T06:04:50.077Z,12.39
2022-10-09T06:07:17.388Z,12.43
2022-10-09T06:09:44.816Z,12.45
2022-10-09T06:12:14.898Z,12.44
2022-10-09T06:14:41.867Z,12.44
2022-10-09T06:17:09.197Z,12.47
2022-10-09T06:19:36.489Z,12.46
2022-10-09T06:22:03.628Z,12.50
2022-10-09T06:24:30.910Z,12.49
2022-10-09T06:26:58.622Z,12.52
2022-10-09T06:29:27.665Z,12.53
2022-10-09T06:31:55.058Z,12.57
2022-10-09T06:34:23.683Z,12.59
2022-10-09T06:36:50.923Z,12.60
2022-10-09T06:39:18.575Z,12.62
2022-10-09T06:41:46.095Z,12.62
2022-10-09T06:44:16.824Z,12.62
2022-10-09T06:46:49.854Z,12.59
2022-10-09T06:49:17.592Z,12.59
2022-10-09T06:51:45.502Z,12.62
2022-10-09T06:54:15.529Z,12.65
2022-10-09T06:56:43.048Z,12.65
2022-10-09T06:59:11.257Z,12.67
2022-10-09T07:01:39.101Z,12.70
2022-10-09T07:04:11.434Z,12.71
2022-10-09T07:06:42.423Z,12.75
2022-10-09T07:09:12.497Z,12.79
2022-10-09T07:11:42.243Z,12.82
2022-10-09T07:14:11.375Z,12.81
2022-10-09T07:16:41.116Z,12.80
2022-10-09T07:19:12.223Z,12.78
2022-10-09T07:21:41.293Z,12.75
2022-10-09T07:24:09.447Z,12.73
2022-10-09T07:26:38.874Z,12.69
2022-10-09T07:29:10.584Z,12.65
2022-10-09T07:31:38.109Z,12.63
2022-10-09T07:34:07.477Z,12.68
2022-10-09T07:36:36.238Z,12.69
2022-10-09T07:39:04.770Z,12.74
2022-10-09T07:41:32.573Z,12.81
2022-10-09T07:44:00.084Z,12.87
2022-10-09T07:46:33.347Z,12.90
2022-10-09T07:49:01.656Z,12.99
2022-10-09T07:51:30.089Z,12.98
2022-10-09T07:54:00.233Z,12.99
2022-10-09T07:56:30.267Z,13.02
2022-10-09T07:58:59.380Z,13.01
2022-10-09T08:01:28.544Z,13.05
2022-10-09T08:03:56.914Z,13.06
2022-10-09T08:06:25.772Z,13.07
2022-10-09T08:08:58.007Z,13.09
2022-10-09T08:11:28.467Z,13.10
2022-10-09T08:13:55.756Z,13.11
2022-10-09T08:16:25.805Z,13.08
2022-10-09T08:18:56.936Z,13.06
2022-10-09T08:21:27.866Z,13.03
2022-10-09T08:23:56.371Z,13.00
2022-10-09T08:26:25.074Z,13.00
2022-10-09T08:28:56.015Z,13.03
2022-10-09T08:31:24.170Z,13.04
2022-10-09T08:33:55.548Z,13.04
2022-10-09T08:36:23.596Z,13.07
2022-10-09T08:38:51.646Z,13.11
2022-10-09T08:41:29.781Z,13.16
2022-10-09T08:44:03.393Z,13.14
2022-10-09T08:46:49.854Z,13.16
2022-10-09T08:49:22.169Z,13.19
2022-10-09T08:51:53.071Z,13.18
2022-10-09T08:54:27.372Z,13.22
2022-10-09T08:56:55.869Z,13.25
2022-10-09T08:59:24.549Z,13.23
2022-10-09T09:02:02.907Z,13.25
2022-10-09T09:04:44.207Z,13.24
2022-10-09T09:07:19.477Z,13.23
2022-10-09T09:09:53.467Z,13.22
2022-10-09T09:12:29.286Z,13.22
2022-10-09T09:15:30.394Z,13.16
2022-10-09T09:18:12.263Z,13.15
2022-10-09T09:20:50.664Z,13.14
2022-10-09T09:23:18.150Z,13.14
2022-10-09T09:25:45.778Z,13.08
2022-10-09T09:28:18.798Z,13.10
2022-10-09T09:30:53.987Z,13.14
2022-10-09T09:33:36.167Z,13.20
2022-10-09T09:36:09.444Z,13.23
2022-10-09T09:38:54.199Z,13.24
2022-10-09T09:41:26.568Z,13.23
2022-10-09T09:43:54.411Z,13.20
2022-10-09T09:46:29.440Z,13.18
2022-10-09T09:48:57.126Z,13.20
2022-10-09T09:51:29.310Z,13.25
2022-10-09T09:53:59.851Z,13.30
2022-10-09T09:57:06.751Z,13.27
2022-10-09T09:59:35.194Z,13.29
2022-10-09T10:02:12.406Z,13.37
2022-10-09T10:04:50.350Z,13.34
2022-10-09T10:07:29.300Z,13.36
2022-10-09T10:10:05.608Z,13.36
2022-10-09T10:12:33.871Z,13.39
2022-10-09T10:15:01.085Z,13.45
2022-10-09T10:17:32.982Z,13.44
2022-10-09T10:20:06.897Z,13.44
2022-10-09T10:22:36.007Z,13.46
2022-10-09T10:25:04.053Z,13.51
2022-10-09T10:27:39.036Z,13.56
2022-10-09T10:30:11.484Z,13.60
2022-10-09T10:32:51.675Z,13.60
2022-10-09T10:35:24.699Z,13.65
2022-10-09T10:38:00.119Z,13.62
2022-10-09T10:40:32.229Z,13.64
2022-10-09T10:43:14.093Z,13.61
2022-10-09T10:45:55.060Z,13.68
2022-10-09T10:48:29.629Z,13.70
2022-10-09T10:51:05.798Z,13.73
2022-10-09T10:53:50.959Z,13.72
2022-10-09T10:56:31.210Z,13.73
2022-10-09T10:59:20.523Z,13.75
2022-10-09T11:01:56.659Z,13.75
2022-10-09T11:04:48.818Z,13.75
2022-10-09T11:07:26.302Z,13.78
2022-10-09T11:10:05.603Z,13.80
2022-10-09T11:12:48.236Z,13.83
2022-10-09T11:15:25.643Z,13.86
2022-10-09T11:18:04.987Z,13.89
2022-10-09T11:21:05.147Z,13.91
2022-10-09T11:23:48.703Z,13.92
2022-10-09T11:26:26.831Z,13.92
2022-10-09T11:29:01.289Z,13.90
2022-10-09T11:31:33.703Z,13.93
2022-10-09T11:34:06.573Z,13.95
2022-10-09T11:36:40.317Z,13.96
2022-10-09T11:39:14.557Z,13.95
2022-10-09T11:41:44.208Z,13.97
2022-10-09T11:44:33.411Z,13.94
2022-10-09T11:47:09.863Z,13.94
2022-10-09T11:49:48.657Z,13.93
2022-10-09T11:52:27.379Z,13.91
2022-10-09T11:54:55.226Z,13.92
2022-10-09T11:57:30.116Z,13.91
2022-10-09T12:00:09.118Z,13.90
2022-10-09T12:02:38.031Z,13.88
2022-10-09T12:05:18.238Z,13.89
2022-10-09T12:07:47.394Z,13.88
2022-10-09T12:10:29.280Z,13.90
2022-10-09T12:13:00.912Z,13.90
2022-10-09T12:15:36.289Z,13.91
2022-10-09T12:18:16.748Z,13.91
2022-10-09T12:20:48.379Z,13.92
2022-10-09T12:23:27.398Z,13.95
2022-10-09T12:25:56.532Z,13.99
2022-10-09T12:28:29.711Z,13.99
2022-10-09T12:31:00.084Z,13.99
2022-10-09T12:33:33.945Z,13.98
2022-10-09T12:36:06.296Z,13.97
2022-10-09T12:38:35.681Z,13.95
2022-10-09T12:41:07.688Z,13.93
2022-10-09T12:43:35.898Z,13.96
2022-10-09T12:46:04.383Z,13.97
2022-10-09T12:48:39.502Z,13.98
2022-10-09T12:51:16.799Z,14.00
2022-10-09T12:53:49.955Z,13.96
2022-10-09T12:56:23.664Z,13.97
2022-10-09T12:58:52.674Z,13.99
2022-10-09T13:01:21.601Z,14.00
2022-10-09T13:03:57.721Z,13.96
2022-10-09T13:06:28.356Z,13.96
2022-10-09T13:09:00.400Z,13.96
2022-10-09T13:11:34.911Z,13.99
2022-10-09T13:14:03.018Z,14.02
2022-10-09T13:16:40.961Z,14.04
2022-10-09T13:19:22.733Z,14.06
2022-10-09T13:22:07.884Z,14.09
2022-10-09T13:24:36.976Z,14.09
2022-10-09T13:27:05.276Z,14.10
2022-10-09T13:29:32.734Z,14.12
2022-10-09T13:31:59.897Z,14.14
2022-10-09T13:34:29.204Z,14.17
2022-10-09T13:36:56.353Z,14.16
2022-10-09T13:39:24.456Z,14.16
2022-10-09T13:41:54.096Z,14.16
2022-10-09T13:44:21.655Z,14.16
2022-10-09T13:46:49.035Z,14.16
2022-10-09T13:49:16.382Z,14.12
2022-10-09T13:51:45.609Z,14.17
2022-10-09T13:54:13.735Z,14.16
2022-10-09T13:56:41.183Z,14.19
2022-10-09T13:59:10.582Z,14.17
2022-10-09T14:01:38.449Z,14.19
2022-10-09T14:04:06.253Z,14.17
2022-10-09T14:06:35.374Z,14.23
2022-10-09T14:09:03.207Z,14.20
2022-10-09T14:11:30.768Z,14.21
2022-10-09T14:13:59.170Z,14.23
2022-10-09T14:16:29.008Z,14.26
2022-10-09T14:18:56.788Z,14.25
2022-10-09T14:21:24.407Z,14.28
2022-10-09T14:23:53.928Z,14.24
2022-10-09T14:26:21.757Z,14.25
2022-10-09T14:28:49.547Z,14.26
2022-10-09T14:31:17.299Z,14.28
2022-10-09T14:33:47.374Z,14.27
2022-10-09T14:36:17.440Z,14.26
2022-10-09T14:38:45.671Z,14.28
2022-10-09T14:41:13.432Z,14.27
2022-10-09T14:43:41.633Z,14.26
2022-10-09T14:46:11.382Z,14.25
2022-10-09T14:48:40.199Z,14.24
2022-10-09T14:51:12.963Z,14.22
2022-10-09T14:53:40.626Z,14.22
2022-10-09T14:56:11.674Z,14.22
2022-10-09T14:58:40.402Z,14.19
2022-10-09T15:01:08.704Z,14.19
2022-10-09T15:03:36.963Z,14.16
2022-10-09T15:06:07.022Z,14.18
2022-10-09T15:08:38.142Z,14.17
2022-10-09T15:11:05.709Z,14.16
2022-10-09T15:13:34.546Z,14.15
2022-10-09T15:16:03.842Z,14.16
2022-10-09T15:18:31.160Z,14.14
2022-10-09T15:20:59.035Z,14.10
2022-10-09T15:23:27.200Z,14.09
2022-10-09T15:25:58.910Z,14.09
2022-10-09T15:28:26.806Z,14.05
2022-10-09T15:30:56.959Z,14.05
2022-10-09T15:33:24.977Z,14.01
2022-10-09T15:35:54.116Z,13.97
2022-10-09T15:38:23.557Z,13.97
2022-10-09T15:40:52.567Z,13.94
2022-10-09T15:43:25.049Z,13.92
2022-10-09T15:45:53.780Z,13.93
2022-10-09T15:48:23.223Z,13.92
2022-10-09T15:50:52.047Z,13.90
2022-10-09T15:53:21.484Z,13.88
2022-10-09T15:55:52.242Z,13.87
2022-10-09T15:58:22.281Z,13.83
2022-10-09T16:00:52.443Z,13.77
2022-10-09T16:03:19.703Z,13.75
2022-10-09T16:05:49.301Z,13.74
2022-10-09T16:08:19.425Z,13.71
2022-10-09T16:10:49.571Z,13.68
2022-10-09T16:13:17.392Z,13.62
2022-10-09T16:15:48.628Z,13.55
2022-10-09T16:18:17.185Z,13.50
2022-10-09T16:20:45.180Z,13.49
2022-10-09T16:23:14.166Z,13.46
2022-10-09T16:25:42.261Z,13.43
2022-10-09T16:28:12.136Z,13.40
2022-10-09T16:30:40.548Z,13.35
2022-10-09T16:33:13.015Z,13.32
2022-10-09T16:35:40.711Z,13.26
2022-10-09T16:38:08.512Z,13.23
2022-10-09T16:43:23.281Z,13.13
2022-10-09T16:45:50.639Z,13.10
2022-10-09T16:48:19.672Z,13.04
2022-10-09T16:50:47.879Z,13.01
2022-10-09T16:53:16.371Z,12.96
2022-10-09T16:55:43.862Z,12.91
2022-10-09T16:58:11.376Z,12.88
2022-10-09T17:00:38.934Z,12.78
2022-10-09T17:03:06.681Z,12.75
2022-10-09T17:05:41.307Z,12.74
2022-10-09T17:08:09.577Z,12.68
2022-10-09T17:10:42.153Z,12.69
2022-10-09T17:13:09.674Z,12.62
2022-10-09T17:15:40.715Z,12.59
2022-10-09T17:18:10.208Z,12.55
2022-10-09T17:20:41.148Z,12.47
2022-10-09T17:23:08.708Z,12.38
2022-10-09T17:25:39.277Z,12.34
2022-10-09T17:28:09.625Z,12.31
2022-10-09T17:30:42.132Z,12.30
2022-10-09T17:33:09.948Z,12.29
2022-10-09T17:35:42.557Z,12.23
2022-10-09T17:38:12.336Z,12.21
2022-10-09T17:40:40.644Z,12.17
2022-10-09T17:43:09.116Z,12.17
2022-10-09T17:45:41.117Z,12.12
2022-10-09T17:48:10.222Z,12.07
2022-10-09T17:50:38.741Z,12.05
2022-10-09T17:53:08.472Z,12.00
2022-10-09T17:55:38.260Z,11.95
2022-10-09T17:58:06.572Z,11.89
2022-10-09T18:00:38.358Z,11.81
2022-10-09T18:03:06.733Z,11.76
2022-10-09T18:05:41.319Z,11.68
2022-10-09T18:08:12.070Z,11.61
2022-10-09T18:10:41.306Z,11.56
2022-10-09T18:13:11.353Z,11.54
2022-10-09T18:15:40.200Z,11.47
2022-10-09T18:18:09.646Z,11.44
2022-10-09T18:20:37.540Z,11.36
2022-10-09T18:23:07.233Z,11.34
2022-10-09T18:25:41.946Z,11.29
2022-10-09T18:28:10.032Z,11.23
2022-10-09T18:30:42.417Z,11.17
2022-10-09T18:33:10.719Z,11.10
2022-10-09T18:35:39.741Z,11.05
2022-10-09T18:38:09.852Z,11.00
2022-10-09T18:40:45.393Z,10.95
2022-10-09T18:43:15.749Z,10.91
2022-10-09T18:45:48.639Z,10.86
2022-10-09T18:48:17.489Z,10.83
2022-10-09T18:50:46.751Z,10.80
2022-10-09T18:53:18.291Z,10.80
2022-10-09T18:55:49.131Z,10.73
2022-10-09T18:58:18.229Z,10.71
2022-10-09T19:00:46.739Z,10.65
2022-10-09T19:03:14.921Z,10.60
2022-10-09T19:05:43.708Z,10.56
2022-10-09T19:08:13.763Z,10.51
2022-10-09T19:10:41.441Z,10.47
2022-10-09T19:13:10.976Z,10.40
2022-10-09T19:15:38.265Z,10.36
2022-10-09T19:18:07.167Z,10.37
2022-10-09T19:20:39.386Z,10.30
2022-10-09T19:23:07.046Z,10.26
2022-10-09T19:25:34.569Z,10.24
2022-10-09T19:28:02.407Z,10.16
2022-10-09T19:30:31.529Z,10.13
2022-10-09T19:32:58.814Z,10.06
2022-10-09T19:35:26.175Z,10.02
2022-10-09T19:37:53.462Z,9.97
2022-10-09T19:40:20.974Z,9.93
2022-10-09T19:42:49.051Z,9.97
2022-10-09T19:45:16.678Z,9.92
2022-10-09T19:47:45.782Z,9.91
2022-10-09T19:50:13.930Z,9.86
2022-10-09T19:52:41.814Z,9.83
2022-10-09T19:55:09.721Z,9.83
2022-10-09T19:57:37.528Z,9.80
2022-10-09T20:00:05.633Z,9.82
2022-10-09T20:02:33.952Z,9.81
2022-10-09T20:05:04.597Z,9.77
2022-10-09T20:07:32.683Z,9.70
2022-10-09T20:09:59.969Z,9.66
2022-10-09T20:12:27.369Z,9.62
2022-10-09T20:14:54.633Z,9.60
2022-10-09T20:17:22.123Z,9.58
2022-10-09T20:19:49.409Z,9.53
2022-10-09T20:22:18.787Z,9.49
2022-10-09T20:24:45.854Z,9.43
2022-10-09T20:27:13.180Z,9.40
2022-10-09T20:29:40.679Z,9.36
2022-10-09T20:32:08.011Z,9.41
2022-10-09T20:34:35.356Z,9.39
2022-10-09T20:37:02.886Z,9.41
2022-10-09T20:39:31.657Z,9.34
2022-10-09T20:41:58.959Z,9.32
2022-10-09T20:44:27.345Z,9.26
2022-10-09T20:46:55.128Z,9.21
2022-10-09T20:49:23.390Z,9.17
2022-10-09T20:51:50.921Z,9.18
2022-10-09T20:54:20.064Z,9.16
2022-10-09T20:56:49.915Z,9.12
2022-10-09T20:59:17.926Z,9.10
2022-10-09T21:01:45.769Z,9.06
2022-10-09T21:04:13.750Z,9.06
2022-10-09T21:06:42.719Z,9.04
2022-10-09T21:09:10.558Z,9.04
2022-10-09T21:11:38.267Z,9.05
2022-10-09T21:14:07.507Z,9.04
2022-10-09T21:16:35.050Z,9.01
2022-10-09T21:19:04.748Z,9.02
2022-10-09T21:21:33.643Z,8.98
2022-10-09T21:24:03.020Z,8.90
2022-10-09T21:26:34.745Z,8.87
2022-10-09T21:29:03.656Z,8.86
2022-10-09T21:31:34.260Z,8.86
2022-10-09T21:34:02.414Z,8.83
2022-10-09T21:36:55.816Z,8.88
2022-10-09T21:39:29.474Z,8.90
2022-10-09T21:41:56.991Z,8.91
2022-10-09T21:44:24.469Z,8.90
2022-10-09T21:46:53.330Z,8.91
2022-10-09T21:49:23.075Z,8.90
2022-10-09T21:51:50.876Z,8.82
2022-10-09T21:54:18.711Z,8.73
2022-10-09T21:56:46.584Z,8.62
2022-10-09T21:59:14.450Z,8.54
2022-10-09T22:01:42.254Z,8.54
2022-10-09T22:04:11.980Z,8.57
2022-10-09T22:06:39.177Z,8.60
2022-10-09T22:09:06.710Z,8.58
2022-10-09T22:11:34.225Z,8.58
2022-10-09T22:14:01.764Z,8.60
2022-10-09T22:16:29.014Z,8.53
2022-10-09T22:18:56.958Z,8.52
2022-10-09T22:21:26.234Z,8.50
2022-10-09T22:23:54.077Z,8.46
2022-10-09T22:26:23.213Z,8.44
2022-10-09T22:28:50.726Z,8.38
2022-10-09T22:31:21.775Z,8.34
2022-10-09T22:33:51.832Z,8.35
2022-10-09T22:36:21.321Z,8.35
2022-10-09T22:38:53.909Z,8.35
2022-10-09T22:41:23.031Z,8.31
2022-10-09T22:43:53.112Z,8.29
2022-10-09T22:46:22.900Z,8.29
2022-10-09T22:48:51.378Z,8.30
2022-10-09T22:51:20.190Z,8.33
2022-10-09T22:53:49.726Z,8.30
2022-10-09T22:56:19.404Z,8.27
2022-10-09T22:58:47.950Z,8.22
2022-10-09T23:01:19.262Z,8.20
2022-10-09T23:03:47.442Z,8.16
2022-10-09T23:06:16.635Z,8.18
2022-10-09T23:08:46.893Z,8.19
2022-10-09T23:11:17.912Z,8.18
2022-10-09T23:13:46.409Z,8.21
2022-10-09T23:16:16.327Z,8.22
2022-10-09T23:18:43.774Z,8.24
2022-10-09T23:21:14.132Z,8.32
2022-10-09T23:23:42.566Z,8.35
2022-10-09T23:26:12.620Z,8.37
2022-10-09T23:28:43.167Z,8.40
2022-10-09T23:31:12.835Z,8.38
2022-10-09T23:33:41.663Z,8.40
2022-10-09T23:36:10.746Z,8.44
2022-10-09T23:38:38.901Z,8.41
2022-10-09T23:41:08.979Z,8.42
2022-10-09T23:43:38.740Z,8.47
2022-10-09T23:46:12.436Z,8.46
2022-10-09T23:48:39.954Z,8.45
2022-10-09T23:51:07.671Z,8.44
2022-10-09T23:53:36.175Z,8.43
2022-10-09T23:56:07.241Z,8.45
2022-10-09T23:58:35.023Z,8.50
